sensor_id;sensor_type;location;lat;lon;timestamp;pressure;altitude;pressure_sealevel;temperature;humidity
24825;BME280;12910;57.690;11.974;2023-02-17T00:00:10;100426.94;;;4.23;100.00
24825;BME280;12910;57.690;11.974;2023-02-17T00:02:36;100419.34;;;4.23;100.00
24825;BME280;12910;57.690;11.974;2023-02-17T00:05:03;100417.56;;;4.20;100.00
24825;BME280;12910;57.690;11.974;2023-02-17T00:07:30;100414.09;;;4.18;100.00
24825;BME280;12910;57.690;11.974;2023-02-17T00:09:59;100414.13;;;4.20;100.00
24825;BME280;12910;57.690;11.974;2023-02-17T00:12:25;100409.94;;;4.20;100.00
24825;BME280;12910;57.690;11.974;2023-02-17T00:14:50;100412.41;;;4.19;100.00
24825;BME280;12910;57.690;11.974;2023-02-17T00:17:16;100411.72;;;4.23;100.00
24825;BME280;12910;57.690;11.974;2023-02-17T00:19:41;100403.91;;;4.17;100.00
24825;BME280;12910;57.690;11.974;2023-02-17T00:22:07;100405.84;;;4.24;100.00
24825;BME280;12910;57.690;11.974;2023-02-17T00:24:35;100404.97;;;4.24;100.00
24825;BME280;12910;57.690;11.974;2023-02-17T00:27:01;100394.78;;;4.22;100.00
24825;BME280;12910;57.690;11.974;2023-02-17T00:29:27;100382.81;;;4.18;100.00
24825;BME280;12910;57.690;11.974;2023-02-17T00:31:53;100382.06;;;4.20;100.00
24825;BME280;12910;57.690;11.974;2023-02-17T00:34:19;100383.03;;;4.24;100.00
24825;BME280;12910;57.690;11.974;2023-02-17T00:36:44;100374.53;;;4.24;100.00
24825;BME280;12910;57.690;11.974;2023-02-17T00:39:13;100371.28;;;4.26;100.00
24825;BME280;12910;57.690;11.974;2023-02-17T00:41:39;100356.91;;;4.27;100.00
24825;BME280;12910;57.690;11.974;2023-02-17T00:44:04;100367.94;;;4.27;100.00
24825;BME280;12910;57.690;11.974;2023-02-17T00:46:30;100358.47;;;4.23;100.00
24825;BME280;12910;57.690;11.974;2023-02-17T00:48:56;100358.59;;;4.26;100.00
24825;BME280;12910;57.690;11.974;2023-02-17T00:51:22;100362.03;;;4.28;100.00
24825;BME280;12910;57.690;11.974;2023-02-17T00:53:48;100352.59;;;4.24;100.00
24825;BME280;12910;57.690;11.974;2023-02-17T00:56:13;100344.16;;;4.25;100.00
24825;BME280;12910;57.690;11.974;2023-02-17T00:58:40;100339.03;;;4.24;100.00
24825;BME280;12910;57.690;11.974;2023-02-17T01:01:06;100343.47;;;4.29;100.00
24825;BME280;12910;57.690;11.974;2023-02-17T01:03:32;100348.44;;;4.26;100.00
24825;BME280;12910;57.690;11.974;2023-02-17T01:05:58;100344.16;;;4.25;100.00
24825;BME280;12910;57.690;11.974;2023-02-17T01:08:24;100330.69;;;4.26;100.00
24825;BME280;12910;57.690;11.974;2023-02-17T01:10:50;100330.78;;;4.29;100.00
24825;BME280;12910;57.690;11.974;2023-02-17T01:13:18;100321.38;;;4.27;100.00
24825;BME280;12910;57.690;11.974;2023-02-17T01:15:48;100328.31;;;4.31;100.00
24825;BME280;12910;57.690;11.974;2023-02-17T01:18:14;100320.63;;;4.29;100.00
24825;BME280;12910;57.690;11.974;2023-02-17T01:20:40;100311.28;;;4.28;100.00
24825;BME280;12910;57.690;11.974;2023-02-17T01:23:08;100316.44;;;4.30;100.00
24825;BME280;12910;57.690;11.974;2023-02-17T01:25:41;100312.13;;;4.27;100.00
24825;BME280;12910;57.690;11.974;2023-02-17T01:28:09;100314.53;;;4.24;100.00
24825;BME280;12910;57.690;11.974;2023-02-17T01:30:35;100300.63;;;4.14;100.00
24825;BME280;12910;57.690;11.974;2023-02-17T01:33:00;100286.34;;;4.16;100.00
24825;BME280;12910;57.690;11.974;2023-02-17T01:35:26;100294.25;;;4.24;100.00
24825;BME280;12910;57.690;11.974;2023-02-17T01:37:51;100288.19;;;4.20;100.00
24825;BME280;12910;57.690;11.974;2023-02-17T01:40:17;100281.38;;;4.19;100.00
24825;BME280;12910;57.690;11.974;2023-02-17T01:42:43;100274.63;;;4.20;100.00
24825;BME280;12910;57.690;11.974;2023-02-17T01:47:45;100272.69;;;4.13;100.00
24825;BME280;12910;57.690;11.974;2023-02-17T01:50:13;100266.81;;;4.14;100.00
24825;BME280;12910;57.690;11.974;2023-02-17T01:52:40;100263.19;;;4.07;100.00
24825;BME280;12910;57.690;11.974;2023-02-17T01:55:10;100249.56;;;4.05;100.00
24825;BME280;12910;57.690;11.974;2023-02-17T01:57:40;100241.91;;;4.03;100.00
24825;BME280;12910;57.690;11.974;2023-02-17T02:00:09;100239.50;;;4.07;100.00
24825;BME280;12910;57.690;11.974;2023-02-17T02:02:36;100233.38;;;4.01;100.00
24825;BME280;12910;57.690;11.974;2023-02-17T02:05:02;100234.44;;;4.07;100.00
24825;BME280;12910;57.690;11.974;2023-02-17T02:07:31;100235.81;;;3.98;100.00
24825;BME280;12910;57.690;11.974;2023-02-17T02:09:58;100235.66;;;3.94;100.00
24825;BME280;12910;57.690;11.974;2023-02-17T02:12:36;100226.25;;;3.91;100.00
24825;BME280;12910;57.690;11.974;2023-02-17T02:15:07;100226.25;;;3.91;100.00
24825;BME280;12910;57.690;11.974;2023-02-17T02:17:51;100211.00;;;3.89;100.00
24825;BME280;12910;57.690;11.974;2023-02-17T02:23:06;100210.19;;;3.90;100.00
24825;BME280;12910;57.690;11.974;2023-02-17T02:26:17;100205.13;;;3.90;100.00
24825;BME280;12910;57.690;11.974;2023-02-17T02:34:52;100185.81;;;3.94;100.00
24825;BME280;12910;57.690;11.974;2023-02-17T02:37:24;100179.00;;;3.93;100.00
24825;BME280;12910;57.690;11.974;2023-02-17T02:39:52;100165.31;;;3.88;100.00
24825;BME280;12910;57.690;11.974;2023-02-17T02:42:22;100156.78;;;3.86;100.00
24825;BME280;12910;57.690;11.974;2023-02-17T02:44:48;100163.03;;;3.96;100.00
24825;BME280;12910;57.690;11.974;2023-02-17T02:47:43;100156.22;;;3.95;100.00
24825;BME280;12910;57.690;11.974;2023-02-17T02:50:12;100160.44;;;3.94;100.00
24825;BME280;12910;57.690;11.974;2023-02-17T02:55:50;100140.16;;;3.94;100.00
24825;BME280;12910;57.690;11.974;2023-02-17T03:01:02;100134.44;;;4.00;100.00
24825;BME280;12910;57.690;11.974;2023-02-17T03:06:13;100136.97;;;4.00;100.00
24825;BME280;12910;57.690;11.974;2023-02-17T03:08:52;100125.22;;;4.02;100.00
24825;BME280;12910;57.690;11.974;2023-02-17T03:11:25;100120.16;;;4.02;100.00
24825;BME280;12910;57.690;11.974;2023-02-17T03:14:11;100111.59;;;3.98;100.00
24825;BME280;12910;57.690;11.974;2023-02-17T03:16:39;100110.16;;;4.07;100.00
24825;BME280;12910;57.690;11.974;2023-02-17T03:19:05;100094.66;;;3.97;100.00
24825;BME280;12910;57.690;11.974;2023-02-17T03:21:50;100095.88;;;4.09;100.00
24825;BME280;12910;57.690;11.974;2023-02-17T03:24:16;100089.06;;;4.08;100.00
24825;BME280;12910;57.690;11.974;2023-02-17T03:26:41;100081.34;;;4.04;100.00
24825;BME280;12910;57.690;11.974;2023-02-17T03:29:07;100067.97;;;4.09;100.00
24825;BME280;12910;57.690;11.974;2023-02-17T03:31:32;100062.06;;;4.10;100.00
24825;BME280;12910;57.690;11.974;2023-02-17T03:33:58;100059.53;;;4.10;100.00
24825;BME280;12910;57.690;11.974;2023-02-17T03:36:24;100036.63;;;4.07;100.00
24825;BME280;12910;57.690;11.974;2023-02-17T03:38:49;100053.72;;;4.12;100.00
24825;BME280;12910;57.690;11.974;2023-02-17T03:41:15;100045.38;;;4.16;100.00
24825;BME280;12910;57.690;11.974;2023-02-17T03:43:40;100029.22;;;4.13;100.00
24825;BME280;12910;57.690;11.974;2023-02-17T03:46:12;100025.88;;;4.14;100.00
24825;BME280;12910;57.690;11.974;2023-02-17T03:48:38;100020.91;;;4.17;100.00
24825;BME280;12910;57.690;11.974;2023-02-17T03:51:16;100008.25;;;4.18;100.00
24825;BME280;12910;57.690;11.974;2023-02-17T03:53:42;100004.03;;;4.19;100.00
24825;BME280;12910;57.690;11.974;2023-02-17T03:56:09;100000.69;;;4.20;100.00
24825;BME280;12910;57.690;11.974;2023-02-17T03:58:34;99981.91;;;4.13;100.00
24825;BME280;12910;57.690;11.974;2023-02-17T04:01:00;99967.44;;;4.11;100.00
24825;BME280;12910;57.690;11.974;2023-02-17T04:03:25;99945.84;;;3.96;100.00
24825;BME280;12910;57.690;11.974;2023-02-17T04:05:51;99959.00;;;4.12;100.00
24825;BME280;12910;57.690;11.974;2023-02-17T04:08:19;99948.78;;;4.09;100.00
24825;BME280;12910;57.690;11.974;2023-02-17T04:10:44;99939.50;;;4.09;100.00
24825;BME280;12910;57.690;11.974;2023-02-17T04:13:10;99949.59;;;4.08;100.00
24825;BME280;12910;57.690;11.974;2023-02-17T04:15:35;99941.09;;;4.05;100.00
24825;BME280;12910;57.690;11.974;2023-02-17T04:18:00;99920.50;;;3.96;100.00
24825;BME280;12910;57.690;11.974;2023-02-17T04:20:26;99936.94;;;4.08;100.00
24825;BME280;12910;57.690;11.974;2023-02-17T04:22:51;99932.56;;;4.03;100.00
24825;BME280;12910;57.690;11.974;2023-02-17T04:25:17;99931.88;;;4.09;100.00
24825;BME280;12910;57.690;11.974;2023-02-17T04:27:42;99927.59;;;4.07;100.00
24825;BME280;12910;57.690;11.974;2023-02-17T04:30:08;99915.72;;;4.05;100.00
24825;BME280;12910;57.690;11.974;2023-02-17T04:32:33;99902.22;;;4.07;100.00
24825;BME280;12910;57.690;11.974;2023-02-17T04:34:59;99888.53;;;4.01;100.00
24825;BME280;12910;57.690;11.974;2023-02-17T04:37:24;99877.41;;;3.96;100.00
24825;BME280;12910;57.690;11.974;2023-02-17T04:39:49;99888.53;;;4.01;100.00
24825;BME280;12910;57.690;11.974;2023-02-17T04:42:15;99869.00;;;3.97;100.00
24825;BME280;12910;57.690;11.974;2023-02-17T04:44:40;99861.38;;;3.97;100.00
24825;BME280;12910;57.690;11.974;2023-02-17T04:47:05;99870.78;;;4.01;100.00
24825;BME280;12910;57.690;11.974;2023-02-17T04:49:31;99866.72;;;4.07;100.00
24825;BME280;12910;57.690;11.974;2023-02-17T04:51:56;99865.13;;;4.09;100.00
24825;BME280;12910;57.690;11.974;2023-02-17T04:54:21;99847.41;;;4.10;100.00
24825;BME280;12910;57.690;11.974;2023-02-17T04:56:47;99845.78;;;4.12;100.00
24825;BME280;12910;57.690;11.974;2023-02-17T04:59:12;99831.31;;;4.10;100.00
24825;BME280;12910;57.690;11.974;2023-02-17T05:01:37;99824.72;;;4.15;100.00
24825;BME280;12910;57.690;11.974;2023-02-17T05:04:03;99807.66;;;4.11;100.00
24825;BME280;12910;57.690;11.974;2023-02-17T05:06:29;99798.44;;;4.13;100.00
24825;BME280;12910;57.690;11.974;2023-02-17T05:08:54;99782.41;;;4.14;100.00
24825;BME280;12910;57.690;11.974;2023-02-17T05:11:19;99776.50;;;4.13;100.00
24825;BME280;12910;57.690;11.974;2023-02-17T05:13:45;99770.63;;;4.16;100.00
24825;BME280;12910;57.690;11.974;2023-02-17T05:16:10;99767.16;;;4.12;100.00
24825;BME280;12910;57.690;11.974;2023-02-17T05:18:35;99767.28;;;4.17;100.00
24825;BME280;12910;57.690;11.974;2023-02-17T05:21:01;99756.34;;;4.18;100.00
24825;BME280;12910;57.690;11.974;2023-02-17T05:23:26;99734.09;;;4.09;100.00
24825;BME280;12910;57.690;11.974;2023-02-17T05:25:51;99736.78;;;4.15;100.00
24825;BME280;12910;57.690;11.974;2023-02-17T05:28:17;99742.06;;;4.21;100.00
24825;BME280;12910;57.690;11.974;2023-02-17T05:30:42;99730.13;;;4.19;100.00
24825;BME280;12910;57.690;11.974;2023-02-17T05:33:07;99723.44;;;4.21;100.00
24825;BME280;12910;57.690;11.974;2023-02-17T05:35:36;99714.19;;;4.23;100.00
24825;BME280;12910;57.690;11.974;2023-02-17T05:38:01;99698.13;;;4.23;100.00
24825;BME280;12910;57.690;11.974;2023-02-17T05:40:27;99691.28;;;4.20;100.00
24825;BME280;12910;57.690;11.974;2023-02-17T05:42:52;99677.00;;;4.24;100.00
24825;BME280;12910;57.690;11.974;2023-02-17T05:45:17;99657.44;;;4.18;100.00
24825;BME280;12910;57.690;11.974;2023-02-17T05:47:43;99645.63;;;4.20;100.00
24825;BME280;12910;57.690;11.974;2023-02-17T05:50:08;99647.47;;;4.26;100.00
24825;BME280;12910;57.690;11.974;2023-02-17T05:52:34;99633.84;;;4.22;100.00
24825;BME280;12910;57.690;11.974;2023-02-17T05:54:59;99625.50;;;4.26;100.00
24825;BME280;12910;57.690;11.974;2023-02-17T05:57:24;99608.56;;;4.25;100.00
24825;BME280;12910;57.690;11.974;2023-02-17T05:59:50;99601.69;;;4.21;100.00
24825;BME280;12910;57.690;11.974;2023-02-17T06:02:15;99613.56;;;4.22;100.00
24825;BME280;12910;57.690;11.974;2023-02-17T06:04:41;99610.28;;;4.26;100.00
24825;BME280;12910;57.690;11.974;2023-02-17T06:07:06;99609.38;;;4.23;100.00
24825;BME280;12910;57.690;11.974;2023-02-17T06:09:31;99596.72;;;4.24;100.00
24825;BME280;12910;57.690;11.974;2023-02-17T06:11:57;99581.34;;;4.18;100.00
24825;BME280;12910;57.690;11.974;2023-02-17T06:14:22;99586.56;;;4.24;100.00
24825;BME280;12910;57.690;11.974;2023-02-17T06:16:47;99573.84;;;4.23;100.00
24825;BME280;12910;57.690;11.974;2023-02-17T06:19:13;99575.63;;;4.27;100.00
24825;BME280;12910;57.690;11.974;2023-02-17T06:21:38;99570.56;;;4.27;100.00
24825;BME280;12910;57.690;11.974;2023-02-17T06:24:04;99570.66;;;4.30;100.00
24825;BME280;12910;57.690;11.974;2023-02-17T06:26:30;99550.25;;;4.25;100.00
24825;BME280;12910;57.690;11.974;2023-02-17T06:28:55;99521.25;;;4.15;100.00
24825;BME280;12910;57.690;11.974;2023-02-17T06:31:20;99536.75;;;4.28;100.00
24825;BME280;12910;57.690;11.974;2023-02-17T06:33:46;99535.06;;;4.28;100.00
24825;BME280;12910;57.690;11.974;2023-02-17T06:36:12;99522.38;;;4.27;100.00
24825;BME280;12910;57.690;11.974;2023-02-17T06:38:37;99530.09;;;4.33;100.00
24825;BME280;12910;57.690;11.974;2023-02-17T06:41:02;99529.28;;;4.32;100.00
24825;BME280;12910;57.690;11.974;2023-02-17T06:43:28;99525.81;;;4.30;100.00
24825;BME280;12910;57.690;11.974;2023-02-17T06:45:53;99520.84;;;4.33;100.00
24825;BME280;12910;57.690;11.974;2023-02-17T06:48:18;99518.28;;;4.32;100.00
24825;BME280;12910;57.690;11.974;2023-02-17T06:50:44;99512.34;;;4.31;100.00
24825;BME280;12910;57.690;11.974;2023-02-17T06:53:09;99488.69;;;4.32;100.00
24825;BME280;12910;57.690;11.974;2023-02-17T06:55:34;99477.72;;;4.33;100.00
24825;BME280;12910;57.690;11.974;2023-02-17T06:58:01;99470.13;;;4.35;100.00
24825;BME280;12910;57.690;11.974;2023-02-17T07:00:27;99460.91;;;4.39;100.00
24825;BME280;12910;57.690;11.974;2023-02-17T07:02:52;99451.53;;;4.34;100.00
24825;BME280;12910;57.690;11.974;2023-02-17T07:05:17;99461.00;;;4.43;100.00
24825;BME280;12910;57.690;11.974;2023-02-17T07:07:43;99444.94;;;4.41;100.00
24825;BME280;12910;57.690;11.974;2023-02-17T07:10:09;99449.28;;;4.47;100.00
24825;BME280;12910;57.690;11.974;2023-02-17T07:12:34;99433.88;;;4.39;100.00
24825;BME280;12910;57.690;11.974;2023-02-17T07:15:00;99420.19;;;4.32;100.00
24825;BME280;12910;57.690;11.974;2023-02-17T07:17:25;99430.66;;;4.46;100.00
24825;BME280;12910;57.690;11.974;2023-02-17T07:19:50;99432.47;;;4.52;100.00
24825;BME280;12910;57.690;11.974;2023-02-17T07:22:16;99425.66;;;4.49;100.00
24825;BME280;12910;57.690;11.974;2023-02-17T07:24:41;99432.47;;;4.53;100.00
24825;BME280;12910;57.690;11.974;2023-02-17T07:27:06;99428.28;;;4.54;100.00
24825;BME280;12910;57.690;11.974;2023-02-17T07:29:32;99416.44;;;4.55;100.00
24825;BME280;12910;57.690;11.974;2023-02-17T07:31:58;99406.34;;;4.56;100.00
24825;BME280;12910;57.690;11.974;2023-02-17T07:34:23;99394.47;;;4.55;100.00
24825;BME280;12910;57.690;11.974;2023-02-17T07:36:49;99378.34;;;4.53;100.00
24825;BME280;12910;57.690;11.974;2023-02-17T07:39:14;99370.84;;;4.59;100.00
24825;BME280;12910;57.690;11.974;2023-02-17T07:41:40;99357.28;;;4.57;100.00
24825;BME280;12910;57.690;11.974;2023-02-17T07:44:05;99362.41;;;4.60;100.00
24825;BME280;12910;57.690;11.974;2023-02-17T07:46:31;99354.00;;;4.61;100.00
24825;BME280;12910;57.690;11.974;2023-02-17T07:48:57;99351.53;;;4.64;100.00
24825;BME280;12910;57.690;11.974;2023-02-17T07:51:23;99350.72;;;4.68;100.00
24825;BME280;12910;57.690;11.974;2023-02-17T07:53:49;99330.44;;;4.68;100.00
24825;BME280;12910;57.690;11.974;2023-02-17T07:56:16;99335.66;;;4.75;100.00
24825;BME280;12910;57.690;11.974;2023-02-17T07:58:43;99328.88;;;4.77;100.00
24825;BME280;12910;57.690;11.974;2023-02-17T08:01:19;99325.53;;;4.78;100.00
24825;BME280;12910;57.690;11.974;2023-02-17T08:03:44;99301.78;;;4.74;100.00
24825;BME280;12910;57.690;11.974;2023-02-17T08:06:12;99296.78;;;4.79;100.00
24825;BME280;12910;57.690;11.974;2023-02-17T08:08:39;99298.56;;;4.83;100.00
24825;BME280;12910;57.690;11.974;2023-02-17T08:11:23;99288.41;;;4.83;100.00
24825;BME280;12910;57.690;11.974;2023-02-17T08:14:07;99277.38;;;4.82;100.00
24825;BME280;12910;57.690;11.974;2023-02-17T08:16:32;99257.88;;;4.80;100.00
24825;BME280;12910;57.690;11.974;2023-02-17T08:18:57;99245.25;;;4.83;100.00
24825;BME280;12910;57.690;11.974;2023-02-17T08:21:24;99237.59;;;4.81;100.00
24825;BME280;12910;57.690;11.974;2023-02-17T08:23:50;99233.38;;;4.80;100.00
24825;BME280;12910;57.690;11.974;2023-02-17T08:26:17;99223.31;;;4.87;100.00
24825;BME280;12910;57.690;11.974;2023-02-17T08:28:43;99205.41;;;4.79;100.00
24825;BME280;12910;57.690;11.974;2023-02-17T08:31:24;99197.06;;;4.86;100.00
24825;BME280;12910;57.690;11.974;2023-02-17T08:33:50;99192.84;;;4.87;100.00
24825;BME280;12910;57.690;11.974;2023-02-17T08:36:17;99179.34;;;4.91;100.00
24825;BME280;12910;57.690;11.974;2023-02-17T08:38:44;99183.59;;;4.90;100.00
24825;BME280;12910;57.690;11.974;2023-02-17T08:41:17;99169.28;;;4.95;100.00
24825;BME280;12910;57.690;11.974;2023-02-17T08:43:42;99152.38;;;4.94;100.00
24825;BME280;12910;57.690;11.974;2023-02-17T08:46:09;99153.16;;;4.92;100.00
24825;BME280;12910;57.690;11.974;2023-02-17T08:48:35;99137.97;;;4.95;100.00
24825;BME280;12910;57.690;11.974;2023-02-17T08:51:01;99136.31;;;4.98;100.00
24825;BME280;12910;57.690;11.974;2023-02-17T08:53:27;99138.91;;;5.00;100.00
24825;BME280;12910;57.690;11.974;2023-02-17T08:55:52;99132.97;;;4.99;100.00
24825;BME280;12910;57.690;11.974;2023-02-17T08:58:17;99129.59;;;5.02;100.00
24825;BME280;12910;57.690;11.974;2023-02-17T09:00:43;99093.03;;;4.89;100.00
24825;BME280;12910;57.690;11.974;2023-02-17T09:03:08;99111.00;;;5.02;100.00
24825;BME280;12910;57.690;11.974;2023-02-17T09:05:34;99099.13;;;5.01;100.00
24825;BME280;12910;57.690;11.974;2023-02-17T09:08:00;99090.69;;;5.02;100.00
24825;BME280;12910;57.690;11.974;2023-02-17T09:10:26;99091.53;;;5.02;100.00
24825;BME280;12910;57.690;11.974;2023-02-17T09:12:51;99061.75;;;4.90;100.00
24825;BME280;12910;57.690;11.974;2023-02-17T09:15:17;99069.50;;;5.01;100.00
24825;BME280;12910;57.690;11.974;2023-02-17T09:17:42;99064.53;;;5.07;100.00
24825;BME280;12910;57.690;11.974;2023-02-17T09:20:09;99058.63;;;5.10;100.00
24825;BME280;12910;57.690;11.974;2023-02-17T09:22:34;99039.13;;;5.07;100.00
24825;BME280;12910;57.690;11.974;2023-02-17T09:25:00;99036.66;;;5.13;100.00
24825;BME280;12910;57.690;11.974;2023-02-17T09:27:25;99018.88;;;5.13;100.00
24825;BME280;12910;57.690;11.974;2023-02-17T09:29:51;99008.72;;;5.15;100.00
24825;BME280;12910;57.690;11.974;2023-02-17T09:32:16;98976.53;;;5.09;100.00
24825;BME280;12910;57.690;11.974;2023-02-17T09:34:42;98984.25;;;5.20;100.00
24825;BME280;12910;57.690;11.974;2023-02-17T09:37:19;98975.81;;;5.23;100.00
24825;BME280;12910;57.690;11.974;2023-02-17T09:39:46;98981.81;;;5.29;100.00
24825;BME280;12910;57.690;11.974;2023-02-17T09:42:18;98963.19;;;5.29;100.00
24825;BME280;12910;57.690;11.974;2023-02-17T09:44:48;98958.16;;;5.35;100.00
24825;BME280;12910;57.690;11.974;2023-02-17T09:47:21;98946.34;;;5.37;100.00
24825;BME280;12910;57.690;11.974;2023-02-17T09:49:54;98911.56;;;5.35;100.00
24825;BME280;12910;57.690;11.974;2023-02-17T09:52:50;98926.06;;;5.43;100.00
24825;BME280;12910;57.690;11.974;2023-02-17T09:55:31;98906.56;;;5.44;100.00
24825;BME280;12910;57.690;11.974;2023-02-17T09:58:07;98910.00;;;5.44;100.00
24825;BME280;12910;57.690;11.974;2023-02-17T10:00:51;98904.03;;;5.42;100.00
24825;BME280;12910;57.690;11.974;2023-02-17T10:03:26;98907.44;;;5.46;100.00
24825;BME280;12910;57.690;11.974;2023-02-17T10:06:08;98892.22;;;5.44;100.00
24825;BME280;12910;57.690;11.974;2023-02-17T10:11:27;98871.88;;;5.44;100.00
24825;BME280;12910;57.690;11.974;2023-02-17T10:13:56;98848.94;;;5.35;100.00
24825;BME280;12910;57.690;11.974;2023-02-17T10:16:29;98864.25;;;5.43;100.00
24825;BME280;12910;57.690;11.974;2023-02-17T10:19:00;98841.34;;;5.38;100.00
24825;BME280;12910;57.690;11.974;2023-02-17T10:21:30;98829.50;;;5.37;100.00
24825;BME280;12910;57.690;11.974;2023-02-17T10:23:58;98815.03;;;5.35;100.00
24825;BME280;12910;57.690;11.974;2023-02-17T10:26:46;98796.47;;;5.37;100.00
24825;BME280;12910;57.690;11.974;2023-02-17T10:32:27;98771.94;;;5.42;100.00
24825;BME280;12910;57.690;11.974;2023-02-17T10:40:01;98735.56;;;5.54;100.00
24825;BME280;12910;57.690;11.974;2023-02-17T10:42:31;98717.78;;;5.54;100.00
24825;BME280;12910;57.690;11.974;2023-02-17T10:45:22;98701.72;;;5.55;100.00
24825;BME280;12910;57.690;11.974;2023-02-17T10:47:52;98691.56;;;5.58;100.00
24825;BME280;12910;57.690;11.974;2023-02-17T10:50:21;98689.84;;;5.51;100.00
24825;BME280;12910;57.690;11.974;2023-02-17T10:52:48;98700.00;;;5.54;100.00
24825;BME280;12910;57.690;11.974;2023-02-17T10:57:49;98678.00;;;5.56;100.00
24825;BME280;12910;57.690;11.974;2023-02-17T11:00:18;98661.06;;;5.55;100.00
24825;BME280;12910;57.690;11.974;2023-02-17T11:02:46;98634.78;;;5.52;100.00
24825;BME280;12910;57.690;11.974;2023-02-17T11:05:24;98637.34;;;5.58;100.00
24825;BME280;12910;57.690;11.974;2023-02-17T11:08:05;98628.91;;;5.60;100.00
24825;BME280;12910;57.690;11.974;2023-02-17T11:10:34;98605.19;;;5.61;100.00
24825;BME280;12910;57.690;11.974;2023-02-17T11:13:01;98585.72;;;5.60;100.00
24825;BME280;12910;57.690;11.974;2023-02-17T11:15:44;98574.69;;;5.61;100.00
24825;BME280;12910;57.690;11.974;2023-02-17T11:18:18;98571.28;;;5.61;100.00
24825;BME280;12910;57.690;11.974;2023-02-17T11:20:45;98544.19;;;5.60;100.00
24825;BME280;12910;57.690;11.974;2023-02-17T11:25:40;98536.56;;;5.57;100.00
24825;BME280;12910;57.690;11.974;2023-02-17T11:28:21;98527.25;;;5.57;100.00
24825;BME280;12910;57.690;11.974;2023-02-17T11:30:58;98519.63;;;5.56;100.00
24825;BME280;12910;57.690;11.974;2023-02-17T11:33:35;98507.75;;;5.50;100.00
24825;BME280;12910;57.690;11.974;2023-02-17T11:36:02;98492.50;;;5.53;100.00
24825;BME280;12910;57.690;11.974;2023-02-17T11:38:33;98489.97;;;5.52;100.00
24825;BME280;12910;57.690;11.974;2023-02-17T11:41:06;98478.97;;;5.51;100.00
24825;BME280;12910;57.690;11.974;2023-02-17T11:43:33;98457.81;;;5.48;100.00
24825;BME280;12910;57.690;11.974;2023-02-17T11:54:35;98424.75;;;5.46;100.00
24825;BME280;12910;57.690;11.974;2023-02-17T12:00:13;98418.84;;;5.41;100.00
24825;BME280;12910;57.690;11.974;2023-02-17T12:05:36;98390.03;;;5.40;100.00
24825;BME280;12910;57.690;11.974;2023-02-17T12:13:54;98381.56;;;5.41;100.00
24825;BME280;12910;57.690;11.974;2023-02-17T12:16:54;98340.91;;;5.37;100.00
24825;BME280;12910;57.690;11.974;2023-02-17T12:19:53;98329.09;;;5.33;100.00
24825;BME280;12910;57.690;11.974;2023-02-17T12:22:35;98345.16;;;5.42;100.00
24825;BME280;12910;57.690;11.974;2023-02-17T12:25:23;98339.22;;;5.45;100.00
24825;BME280;12910;57.690;11.974;2023-02-17T12:28:12;98318.91;;;5.45;100.00
24825;BME280;12910;57.690;11.974;2023-02-17T12:34:08;98318.06;;;5.48;100.00
24825;BME280;12910;57.690;11.974;2023-02-17T12:36:39;98291.81;;;5.41;100.00
24825;BME280;12910;57.690;11.974;2023-02-17T12:39:15;98289.25;;;5.52;100.00
24825;BME280;12910;57.690;11.974;2023-02-17T12:41:47;98281.63;;;5.56;100.00
24825;BME280;12910;57.690;11.974;2023-02-17T12:44:27;98287.53;;;5.65;100.00
24825;BME280;12910;57.690;11.974;2023-02-17T12:46:56;98274.00;;;5.66;100.00
24825;BME280;12910;57.690;11.974;2023-02-17T12:52:22;98266.34;;;5.75;100.00
24825;BME280;12910;57.690;11.974;2023-02-17T12:54:55;98257.88;;;5.79;100.00
24825;BME280;12910;57.690;11.974;2023-02-17T12:57:51;98239.25;;;5.80;100.00
24825;BME280;12910;57.690;11.974;2023-02-17T13:00:26;98240.91;;;5.84;100.00
24825;BME280;12910;57.690;11.974;2023-02-17T13:02:57;98247.66;;;5.90;100.00
24825;BME280;12910;57.690;11.974;2023-02-17T13:05:26;98244.25;;;5.96;100.00
24825;BME280;12910;57.690;11.974;2023-02-17T13:13:06;98227.31;;;6.04;100.00
24825;BME280;12910;57.690;11.974;2023-02-17T13:15:37;98217.97;;;6.07;100.00
24825;BME280;12910;57.690;11.974;2023-02-17T13:20:51;98215.38;;;6.15;100.00
24825;BME280;12910;57.690;11.974;2023-02-17T13:23:37;98214.56;;;6.15;100.00
24825;BME280;12910;57.690;11.974;2023-02-17T13:26:14;98202.66;;;6.17;100.00
24825;BME280;12910;57.690;11.974;2023-02-17T13:28:42;98189.16;;;6.10;100.00
24825;BME280;12910;57.690;11.974;2023-02-17T13:33:48;98193.31;;;6.20;100.00
24825;BME280;12910;57.690;11.974;2023-02-17T13:36:21;98178.09;;;6.17;100.00
24825;BME280;12910;57.690;11.974;2023-02-17T13:38:54;98170.44;;;6.19;100.00
24825;BME280;12910;57.690;11.974;2023-02-17T13:41:21;98152.66;;;6.14;100.00
24825;BME280;12910;57.690;11.974;2023-02-17T13:43:47;98156.06;;;6.16;100.00
24825;BME280;12910;57.690;11.974;2023-02-17T13:46:21;98128.06;;;6.16;100.00
24825;BME280;12910;57.690;11.974;2023-02-17T13:48:58;98132.31;;;6.17;100.00
24825;BME280;12910;57.690;11.974;2023-02-17T13:51:26;98128.94;;;6.15;100.00
24825;BME280;12910;57.690;11.974;2023-02-17T13:53:52;98118.75;;;6.15;100.00
24825;BME280;12910;57.690;11.974;2023-02-17T13:56:26;98113.69;;;6.14;100.00
24825;BME280;12910;57.690;11.974;2023-02-17T13:58:52;98107.78;;;6.08;100.00
24825;BME280;12910;57.690;11.974;2023-02-17T14:01:20;98109.47;;;6.06;100.00
24825;BME280;12910;57.690;11.974;2023-02-17T14:03:51;98099.34;;;6.03;100.00
24825;BME280;12910;57.690;11.974;2023-02-17T14:06:26;98079.03;;;6.00;100.00
24825;BME280;12910;57.690;11.974;2023-02-17T14:08:52;98075.59;;;5.98;100.00